Time;durP1;ratioP1;P1;durP2;ratioP2;P2;SDS_P1;SDS_P2;PMS_P1;PMS_P2;Temp;Humidity;BMP_temperature;BMP_pressure;BME280_temperature;BME280_humidity;BME280_pressure;Samples;Min_cycle;Max_cycle;Signal;HPM_P1;HPM_P2
2023/06/15 00:01:14;;;;;;;;;;;;;;;28.24;24.97;98195.25;5043151;28;19921;-86
2023/06/15 00:04:00;;;;;;;;;;;;;;;28.39;24.69;98194.25;5053973;28;20028;-86
2023/06/15 00:06:27;;;;;;;;;;;;;;;28.58;25.03;98192.31;5054167;28;20031;-86
2023/06/15 00:08:54;;;;;;;;;;;;;;;28.30;24.80;98184.91;5053554;28;20397;-86
2023/06/15 00:11:20;;;;;;;;;;;;;;;28.21;24.95;98190.50;5054302;28;20003;-86
2023/06/15 00:13:46;;;;;;;;;;;;;;;28.48;24.65;98188.63;5054095;28;19963;-85
2023/06/15 00:16:18;;;;;;;;;;;;;;;28.48;24.79;98188.63;5037342;28;20352;-87
2023/06/15 00:18:48;;;;;;;;;;;;;;;28.51;24.33;98184.91;5053726;28;20390;-87
2023/06/15 00:21:15;;;;;;;;;;;;;;;27.80;24.70;98183.88;5047422;28;20311;-85
2023/06/15 00:23:42;;;;;;;;;;;;;;;27.86;24.81;98184.09;5033814;28;19923;-85
2023/06/15 00:26:08;;;;;;;;;;;;;;;28.04;25.26;98189.91;5053589;28;20280;-85
2023/06/15 00:28:34;;;;;;;;;;;;;;;27.43;25.36;98190.41;5053408;28;19974;-85
2023/06/15 00:31:00;;;;;;;;;;;;;;;27.59;25.51;98193.06;5050001;28;19921;-85
2023/06/15 00:33:26;;;;;;;;;;;;;;;27.99;25.02;98190.47;5043139;28;20428;-85
2023/06/15 00:35:52;;;;;;;;;;;;;;;28.18;24.82;98194.22;5059166;28;20332;-85
2023/06/15 00:38:18;;;;;;;;;;;;;;;28.31;24.33;98197.78;5052340;28;19917;-86
2023/06/15 00:40:45;;;;;;;;;;;;;;;27.71;25.00;98195.06;5055491;28;19924;-86
2023/06/15 00:43:11;;;;;;;;;;;;;;;27.72;25.05;98198.69;5054749;28;19917;-86
2023/06/15 00:45:37;;;;;;;;;;;;;;;28.06;24.63;98191.03;5047561;28;19921;-85
2023/06/15 00:48:04;;;;;;;;;;;;;;;27.83;24.59;98191.44;5055097;28;20222;-85
2023/06/15 00:50:30;;;;;;;;;;;;;;;27.96;24.62;98197.78;5049745;28;19990;-86
2023/06/15 00:52:58;;;;;;;;;;;;;;;28.13;24.02;98201.25;5054064;28;20296;-86
2023/06/15 00:55:25;;;;;;;;;;;;;;;28.24;24.16;98198.81;5047784;28;19925;-86
2023/06/15 00:57:52;;;;;;;;;;;;;;;28.17;24.39;98195.50;5039105;28;19928;-86
2023/06/15 01:00:19;;;;;;;;;;;;;;;27.82;25.03;98198.31;5047077;28;19927;-86
2023/06/15 01:02:48;;;;;;;;;;;;;;;27.90;24.66;98190.38;5047493;28;20265;-86
2023/06/15 01:05:16;;;;;;;;;;;;;;;27.54;25.03;98190.81;5043235;28;19940;-86
2023/06/15 01:07:47;;;;;;;;;;;;;;;27.67;25.23;98197.25;5039235;28;19924;-86
2023/06/15 01:10:15;;;;;;;;;;;;;;;27.34;25.39;98198.75;5039131;28;19921;-86
2023/06/15 01:12:44;;;;;;;;;;;;;;;27.49;25.37;98194.25;5043536;28;19913;-86
2023/06/15 01:15:13;;;;;;;;;;;;;;;27.41;25.80;98190.06;5037795;28;19921;-87
2023/06/15 01:17:44;;;;;;;;;;;;;;;27.61;25.56;98181.34;5045054;28;19928;-87
2023/06/15 01:20:24;;;;;;;;;;;;;;;27.74;25.40;98187.72;5046005;28;19967;-87
2023/06/15 01:22:59;;;;;;;;;;;;;;;27.89;24.98;98183.94;5050066;28;19921;-87
2023/06/15 01:25:33;;;;;;;;;;;;;;;28.14;24.90;98185.91;5046991;28;19925;-87
2023/06/15 01:28:01;;;;;;;;;;;;;;;28.16;24.60;98186.22;5045871;28;19966;-87
2023/06/15 01:30:28;;;;;;;;;;;;;;;27.97;25.03;98188.09;5038821;28;20020;-87
2023/06/15 01:32:54;;;;;;;;;;;;;;;28.02;25.55;98187.53;5042915;28;19932;-87
2023/06/15 01:35:20;;;;;;;;;;;;;;;27.89;25.92;98192.41;5044439;28;19921;-86
2023/06/15 01:37:47;;;;;;;;;;;;;;;28.13;25.82;98192.00;5042663;28;19931;-87
2023/06/15 01:40:13;;;;;;;;;;;;;;;28.23;25.76;98199.28;5050041;28;20271;-86
2023/06/15 01:42:40;;;;;;;;;;;;;;;28.38;25.59;98198.28;5040007;28;20015;-86
2023/06/15 01:45:07;;;;;;;;;;;;;;;28.45;25.27;98205.75;5041116;28;20376;-86
2023/06/15 01:47:33;;;;;;;;;;;;;;;28.50;24.99;98199.47;5043944;28;19943;-86
2023/06/15 01:50:00;;;;;;;;;;;;;;;28.46;25.18;98204.47;5054319;28;19970;-87
2023/06/15 01:52:26;;;;;;;;;;;;;;;28.10;25.61;98210.63;5052415;28;19970;-87
2023/06/15 01:54:52;;;;;;;;;;;;;;;27.74;26.12;98213.13;5035205;28;19922;-87
2023/06/15 01:57:20;;;;;;;;;;;;;;;27.48;26.03;98206.75;5046378;28;19928;-86
2023/06/15 01:59:46;;;;;;;;;;;;;;;27.51;26.47;98211.50;5044760;28;20007;-86
2023/06/15 02:02:12;;;;;;;;;;;;;;;27.57;26.26;98212.47;5042285;28;20012;-86
2023/06/15 02:04:38;;;;;;;;;;;;;;;27.49;26.09;98213.97;5045650;28;19929;-87
2023/06/15 02:07:04;;;;;;;;;;;;;;;27.27;26.60;98213.06;5042793;28;20391;-86
2023/06/15 02:09:30;;;;;;;;;;;;;;;27.40;26.80;98211.03;5035767;28;19921;-86
2023/06/15 02:11:57;;;;;;;;;;;;;;;27.56;26.40;98199.66;5047463;28;19922;-86
2023/06/15 02:14:23;;;;;;;;;;;;;;;27.93;26.10;98200.75;5040268;28;19932;-86
2023/06/15 02:16:49;;;;;;;;;;;;;;;27.74;26.35;98204.66;5050976;28;20300;-87
2023/06/15 02:19:20;;;;;;;;;;;;;;;27.60;26.10;98199.50;5053139;28;20012;-86
2023/06/15 02:21:48;;;;;;;;;;;;;;;27.84;25.94;98203.50;5036696;28;19928;-86
2023/06/15 02:24:15;;;;;;;;;;;;;;;28.18;25.77;98200.69;5033412;28;19929;-86
2023/06/15 02:26:41;;;;;;;;;;;;;;;28.18;25.59;98195.03;5037703;28;19921;-86
2023/06/15 02:29:07;;;;;;;;;;;;;;;27.79;25.98;98204.88;5050648;28;19967;-86
2023/06/15 02:31:33;;;;;;;;;;;;;;;27.98;26.09;98200.94;5053065;28;19928;-86
2023/06/15 02:33:59;;;;;;;;;;;;;;;28.26;25.92;98195.56;5048010;28;19955;-86
2023/06/15 02:36:25;;;;;;;;;;;;;;;28.29;25.96;98200.28;5044457;28;19956;-86
2023/06/15 02:38:51;;;;;;;;;;;;;;;28.46;25.42;98204.47;5046355;28;19921;-87
2023/06/15 02:41:17;;;;;;;;;;;;;;;28.13;25.98;98206.91;5036267;28;19921;-87
2023/06/15 02:43:43;;;;;;;;;;;;;;;27.97;26.46;98209.88;5047683;28;19995;-86
2023/06/15 02:46:09;;;;;;;;;;;;;;;28.14;26.26;98199.22;5041903;28;20380;-87
2023/06/15 02:48:35;;;;;;;;;;;;;;;28.19;26.38;98204.28;5051755;28;19928;-86
2023/06/15 02:51:01;;;;;;;;;;;;;;;27.48;27.06;98201.13;5037340;28;19936;-86
2023/06/15 02:53:27;;;;;;;;;;;;;;;27.49;27.17;98205.53;5034701;28;19921;-87
2023/06/15 02:55:53;;;;;;;;;;;;;;;27.81;26.94;98208.03;5037356;28;20396;-86
2023/06/15 02:58:20;;;;;;;;;;;;;;;28.25;26.52;98205.28;5045406;28;19928;-86
2023/06/15 03:00:50;;;;;;;;;;;;;;;28.57;26.04;98202.81;5041156;28;19928;-87
2023/06/15 03:03:22;;;;;;;;;;;;;;;28.73;26.30;98202.63;5045023;28;19991;-86
2023/06/15 03:05:48;;;;;;;;;;;;;;;28.89;25.73;98212.13;5049786;28;19971;-87
2023/06/15 03:08:15;;;;;;;;;;;;;;;28.98;26.26;98210.13;5056049;28;19928;-87
2023/06/15 03:10:41;;;;;;;;;;;;;;;28.81;26.63;98219.31;5041158;28;19921;-87
2023/06/15 03:13:07;;;;;;;;;;;;;;;28.52;26.62;98217.53;5055175;28;19921;-87
2023/06/15 03:15:35;;;;;;;;;;;;;;;28.19;27.12;98215.59;5049181;28;19967;-87
2023/06/15 03:18:01;;;;;;;;;;;;;;;27.99;27.47;98210.25;5054897;28;20430;-86
2023/06/15 03:20:32;;;;;;;;;;;;;;;27.95;27.67;98209.56;5050753;28;19921;-87
2023/06/15 03:22:59;;;;;;;;;;;;;;;27.96;27.76;98211.91;5053452;28;20412;-87
2023/06/15 03:25:26;;;;;;;;;;;;;;;28.00;27.58;98206.97;5050664;28;19921;-87
2023/06/15 03:27:59;;;;;;;;;;;;;;;28.24;27.27;98215.75;5050190;28;20024;-87
2023/06/15 03:30:26;;;;;;;;;;;;;;;28.64;27.09;98225.19;5053017;28;19979;-87
2023/06/15 03:32:53;;;;;;;;;;;;;;;28.95;26.73;98225.19;5041439;28;19925;-87
2023/06/15 03:35:20;;;;;;;;;;;;;;;28.97;26.71;98219.06;5051619;28;20280;-87
2023/06/15 03:37:46;;;;;;;;;;;;;;;28.99;26.83;98223.00;5050426;28;19921;-87
2023/06/15 03:40:13;;;;;;;;;;;;;;;29.12;26.77;98226.53;5051988;28;19959;-87
2023/06/15 03:42:39;;;;;;;;;;;;;;;29.27;26.56;98230.38;5044906;28;19986;-88
2023/06/15 03:45:06;;;;;;;;;;;;;;;29.40;26.41;98224.63;5054016;28;19916;-87
2023/06/15 03:47:32;;;;;;;;;;;;;;;29.53;26.58;98230.94;5054508;28;20308;-86
2023/06/15 03:49:58;;;;;;;;;;;;;;;29.61;26.38;98234.25;5046153;28;20002;-87
2023/06/15 03:52:27;;;;;;;;;;;;;;;29.42;27.12;98234.22;5048608;28;19917;-88
2023/06/15 03:54:53;;;;;;;;;;;;;;;29.04;27.41;98227.28;5036067;28;20453;-88
2023/06/15 03:57:19;;;;;;;;;;;;;;;28.57;28.07;98224.63;5040132;28;19952;-87
2023/06/15 03:59:45;;;;;;;;;;;;;;;28.27;28.56;98231.00;5054477;28;20010;-87
2023/06/15 04:02:11;;;;;;;;;;;;;;;27.76;29.27;98231.19;5046934;28;20105;-87
2023/06/15 04:04:40;;;;;;;;;;;;;;;27.73;29.58;98226.44;5047679;28;20015;-87
2023/06/15 04:07:08;;;;;;;;;;;;;;;28.27;29.17;98223.31;5051606;28;19917;-87
2023/06/15 04:09:35;;;;;;;;;;;;;;;28.48;28.98;98221.75;5053470;28;19966;-87
2023/06/15 04:12:01;;;;;;;;;;;;;;;29.01;28.27;98225.38;5056184;28;20007;-87
2023/06/15 04:14:27;;;;;;;;;;;;;;;29.34;28.23;98221.59;5053986;28;19925;-87
2023/06/15 04:16:53;;;;;;;;;;;;;;;29.67;27.86;98221.06;5049957;28;20418;-87
2023/06/15 04:19:22;;;;;;;;;;;;;;;29.73;27.69;98222.03;5042773;28;19921;-87
2023/06/15 04:21:49;;;;;;;;;;;;;;;29.85;27.48;98227.56;5051218;28;19925;-87
2023/06/15 04:24:15;;;;;;;;;;;;;;;30.01;27.50;98227.25;5054568;28;20027;-87
2023/06/15 04:26:44;;;;;;;;;;;;;;;30.18;26.96;98227.72;5054969;28;19921;-86
2023/06/15 04:29:10;;;;;;;;;;;;;;;30.18;27.01;98227.72;5049033;28;20366;-85
2023/06/15 04:31:36;;;;;;;;;;;;;;;30.23;26.89;98226.31;5043636;28;19946;-87
2023/06/15 04:34:04;;;;;;;;;;;;;;;30.31;27.06;98231.22;5051649;28;20399;-85
2023/06/15 04:36:31;;;;;;;;;;;;;;;30.32;26.90;98235.59;5045414;28;20069;-86
2023/06/15 04:38:59;;;;;;;;;;;;;;;30.38;26.73;98230.13;5046329;28;19917;-86
2023/06/15 04:41:27;;;;;;;;;;;;;;;30.35;26.97;98233.91;5053024;28;19921;-87
2023/06/15 04:43:53;;;;;;;;;;;;;;;30.03;27.23;98230.44;5039588;28;19925;-85
2023/06/15 04:46:19;;;;;;;;;;;;;;;30.16;27.57;98235.13;5049068;28;19943;-86
2023/06/15 04:48:47;;;;;;;;;;;;;;;30.23;27.28;98234.81;5055446;28;19916;-87
2023/06/15 04:51:13;;;;;;;;;;;;;;;30.30;27.37;98234.50;5045649;28;19916;-86
2023/06/15 04:53:42;;;;;;;;;;;;;;;30.48;27.25;98240.97;5042050;28;19925;-86
2023/06/15 04:56:08;;;;;;;;;;;;;;;30.56;27.50;98238.59;5054269;28;19917;-88
2023/06/15 04:58:34;;;;;;;;;;;;;;;30.64;27.48;98242.69;5045445;28;19921;-88
2023/06/15 05:01:00;;;;;;;;;;;;;;;30.71;27.13;98245.97;5052359;28;19967;-87
2023/06/15 05:03:27;;;;;;;;;;;;;;;30.78;26.92;98245.63;5052708;28;19931;-88
2023/06/15 05:05:53;;;;;;;;;;;;;;;30.90;27.07;98251.66;5051772;28;19983;-88
2023/06/15 05:08:19;;;;;;;;;;;;;;;30.94;26.63;98255.88;5054741;28;20012;-87
2023/06/15 05:10:45;;;;;;;;;;;;;;;30.99;26.72;98254.44;5048843;28;20498;-87
2023/06/15 05:13:11;;;;;;;;;;;;;;;31.01;26.82;98255.53;5054819;28;19928;-87
2023/06/15 05:15:37;;;;;;;;;;;;;;;31.06;26.87;98266.25;5052693;28;19925;-87
2023/06/15 05:18:03;;;;;;;;;;;;;;;31.03;26.78;98257.91;5052778;28;19982;-87
2023/06/15 05:20:29;;;;;;;;;;;;;;;30.93;27.12;98262.81;5053999;28;20310;-87
2023/06/15 05:22:56;;;;;;;;;;;;;;;30.92;26.84;98266.91;5054524;28;19966;-87
2023/06/15 05:25:22;;;;;;;;;;;;;;;31.10;26.96;98266.06;5055115;28;19928;-87
2023/06/15 05:27:48;;;;;;;;;;;;;;;31.25;26.99;98266.97;5053857;28;19950;-87
2023/06/15 05:30:14;;;;;;;;;;;;;;;31.23;26.87;98269.47;5054915;28;19924;-86
2023/06/15 05:32:40;;;;;;;;;;;;;;;30.94;27.18;98264.38;5054591;28;19916;-87
2023/06/15 05:35:07;;;;;;;;;;;;;;;30.80;27.75;98262.19;5052439;28;19924;-88
2023/06/15 05:37:36;;;;;;;;;;;;;;;30.57;28.25;98263.63;5045050;28;20429;-87
2023/06/15 05:40:03;;;;;;;;;;;;;;;30.75;27.91;98260.00;5053162;28;20004;-87
2023/06/15 05:42:29;;;;;;;;;;;;;;;30.66;27.88;98260.81;5053282;28;19921;-88
2023/06/15 05:44:55;;;;;;;;;;;;;;;30.84;27.34;98264.84;5046134;28;20003;-87
2023/06/15 05:47:21;;;;;;;;;;;;;;;31.10;27.34;98264.03;5052876;28;19921;-87
2023/06/15 05:49:47;;;;;;;;;;;;;;;31.25;27.20;98261.31;5053730;28;19975;-87
2023/06/15 05:52:17;;;;;;;;;;;;;;;31.57;26.96;98262.59;5053712;28;19994;-87
2023/06/15 05:54:43;;;;;;;;;;;;;;;31.60;26.96;98265.22;5053948;28;19925;-87
2023/06/15 05:57:12;;;;;;;;;;;;;;;31.81;27.11;98258.50;5054245;28;19927;-87
2023/06/15 05:59:38;;;;;;;;;;;;;;;31.98;27.36;98254.00;5053495;28;19922;-86
2023/06/15 06:02:05;;;;;;;;;;;;;;;32.04;26.75;98254.13;5041337;28;19940;-86
2023/06/15 06:04:31;;;;;;;;;;;;;;;32.01;27.40;98261.56;5053673;28;19925;-86
2023/06/15 06:06:57;;;;;;;;;;;;;;;32.14;27.22;98260.53;5052999;28;19928;-86
2023/06/15 06:09:23;;;;;;;;;;;;;;;32.14;27.22;98269.81;5053081;28;19920;-86
2023/06/15 06:11:49;;;;;;;;;;;;;;;32.29;26.17;98264.19;5052513;28;19991;-86
2023/06/15 06:14:15;;;;;;;;;;;;;;;32.39;26.31;98263.63;5053852;28;20291;-87
2023/06/15 06:16:42;;;;;;;;;;;;;;;32.58;26.24;98262.19;5051145;28;19921;-87
2023/06/15 06:19:08;;;;;;;;;;;;;;;32.82;26.12;98262.13;5049065;28;20019;-86
2023/06/15 06:21:34;;;;;;;;;;;;;;;33.13;26.85;98264.50;5045717;28;20008;-90
2023/06/15 06:24:00;;;;;;;;;;;;;;;33.36;25.09;98267.22;5048594;28;19928;-88
2023/06/15 06:26:26;;;;;;;;;;;;;;;33.49;24.65;98272.63;5053001;28;19921;-88
2023/06/15 06:28:52;;;;;;;;;;;;;;;33.53;25.55;98270.38;5053640;28;19923;-88
2023/06/15 06:31:18;;;;;;;;;;;;;;;33.44;24.94;98265.53;5053971;28;20277;-89
2023/06/15 06:33:44;;;;;;;;;;;;;;;32.96;25.33;98275.56;5052449;28;19936;-91
2023/06/15 06:36:10;;;;;;;;;;;;;;;32.98;26.41;98270.16;5047843;28;20296;-89
2023/06/15 06:38:36;;;;;;;;;;;;;;;33.01;23.91;98262.72;5053599;28;19967;-89
2023/06/15 06:41:02;;;;;;;;;;;;;;;32.29;24.75;98261.34;5053350;28;20419;-92
2023/06/15 06:43:28;;;;;;;;;;;;;;;32.32;25.35;98255.47;5053418;28;19917;-88
2023/06/15 06:45:54;;;;;;;;;;;;;;;32.65;24.70;98263.91;5053571;28;20324;-87
2023/06/15 06:48:20;;;;;;;;;;;;;;;32.83;24.43;98258.03;5053138;28;19927;-88
2023/06/15 06:50:46;;;;;;;;;;;;;;;32.42;24.91;98264.69;5053185;28;19917;-87
2023/06/15 06:53:12;;;;;;;;;;;;;;;32.91;24.58;98264.13;5046254;28;20277;-88
2023/06/15 06:55:39;;;;;;;;;;;;;;;32.75;24.20;98263.31;5052591;28;19917;-88
2023/06/15 06:58:05;;;;;;;;;;;;;;;32.79;24.91;98263.13;5047337;28;19921;-89
2023/06/15 07:00:31;;;;;;;;;;;;;;;33.07;24.10;98260.81;5051826;28;19925;-88
2023/06/15 07:02:57;;;;;;;;;;;;;;;33.40;24.01;98262.13;5052798;28;19924;-85
2023/06/15 07:05:23;;;;;;;;;;;;;;;33.50;23.74;98262.00;5052824;28;20363;-88
2023/06/15 07:07:49;;;;;;;;;;;;;;;33.69;23.43;98260.50;5053528;28;19955;-87
2023/06/15 07:10:15;;;;;;;;;;;;;;;33.84;23.90;98266.94;5038875;28;19924;-88
2023/06/15 07:12:42;;;;;;;;;;;;;;;34.04;24.69;98264.13;5052897;28;20284;-89
2023/06/15 07:15:08;;;;;;;;;;;;;;;33.91;23.00;98264.44;5043334;28;19965;-86
2023/06/15 07:17:34;;;;;;;;;;;;;;;33.88;23.33;98261.81;5039480;28;19972;-87
2023/06/15 07:20:00;;;;;;;;;;;;;;;33.77;23.25;98258.81;5052805;28;20252;-85
2023/06/15 07:22:26;;;;;;;;;;;;;;;33.85;23.10;98259.94;5052935;28;19921;-88
2023/06/15 07:24:52;;;;;;;;;;;;;;;33.90;23.36;98257.19;5051816;28;20441;-87
2023/06/15 07:27:18;;;;;;;;;;;;;;;34.15;23.65;98258.56;5049733;28;20376;-87
2023/06/15 07:29:44;;;;;;;;;;;;;;;34.23;23.66;98254.00;5051695;28;19931;-87
2023/06/15 07:32:10;;;;;;;;;;;;;;;34.29;23.77;98251.22;5045513;28;20038;-86
2023/06/15 07:34:36;;;;;;;;;;;;;;;34.36;22.95;98245.88;5047105;28;21886;-87
2023/06/15 07:37:03;;;;;;;;;;;;;;;34.51;22.65;98257.97;5048066;28;20000;-86
2023/06/15 07:39:29;;;;;;;;;;;;;;;34.06;23.08;98255.84;5052915;28;20019;-86
2023/06/15 07:41:55;;;;;;;;;;;;;;;34.24;23.12;98255.56;5053102;28;19917;-87
2023/06/15 07:44:21;;;;;;;;;;;;;;;34.30;23.11;98259.28;5049165;28;20253;-86
2023/06/15 07:46:47;;;;;;;;;;;;;;;34.53;23.68;98261.13;5052761;28;19963;-86
2023/06/15 07:49:13;;;;;;;;;;;;;;;34.75;22.57;98258.50;5052770;28;19917;-86
2023/06/15 07:51:40;;;;;;;;;;;;;;;34.81;22.40;98269.97;5050835;28;19966;-86
2023/06/15 07:54:06;;;;;;;;;;;;;;;33.85;23.20;98269.28;5049350;28;20442;-87
2023/06/15 07:56:32;;;;;;;;;;;;;;;33.12;23.22;98260.09;5042960;28;20023;-87
2023/06/15 07:58:58;;;;;;;;;;;;;;;32.94;23.58;98263.09;5047593;28;20367;-87
2023/06/15 08:01:24;;;;;;;;;;;;;;;32.94;23.21;98268.78;5054400;28;19928;-86
2023/06/15 08:03:50;;;;;;;;;;;;;;;32.81;24.21;98266.25;5056322;28;20285;-86
2023/06/15 08:06:16;;;;;;;;;;;;;;;33.30;23.96;98268.44;5054532;28;19921;-86
2023/06/15 08:08:43;;;;;;;;;;;;;;;33.93;21.92;98263.97;5055851;28;19966;-86
2023/06/15 08:11:09;;;;;;;;;;;;;;;34.14;22.29;98267.63;5056157;28;19917;-86
2023/06/15 08:13:37;;;;;;;;;;;;;;;34.39;22.21;98261.19;5046832;28;20392;-86
2023/06/15 08:16:05;;;;;;;;;;;;;;;34.73;21.76;98271.69;5036053;28;20319;-87
2023/06/15 08:18:32;;;;;;;;;;;;;;;35.00;23.17;98268.34;5036764;28;19921;-85
2023/06/15 08:20:58;;;;;;;;;;;;;;;35.41;22.17;98266.13;5038356;28;19952;-86
2023/06/15 08:23:24;;;;;;;;;;;;;;;35.19;23.19;98277.38;5055505;28;20461;-86
2023/06/15 08:25:52;;;;;;;;;;;;;;;34.63;23.45;98276.03;5055465;28;19928;-86
2023/06/15 08:28:19;;;;;;;;;;;;;;;34.55;21.38;98278.53;5056219;28;19917;-86
2023/06/15 08:30:45;;;;;;;;;;;;;;;34.95;21.86;98274.78;5055615;28;20062;-85
2023/06/15 08:33:11;;;;;;;;;;;;;;;35.05;20.80;98272.56;5054697;28;20356;-85
2023/06/15 08:35:37;;;;;;;;;;;;;;;35.20;21.57;98273.22;5054735;28;20008;-86
2023/06/15 08:38:03;;;;;;;;;;;;;;;35.06;20.89;98274.91;5055789;28;20016;-86
2023/06/15 08:40:29;;;;;;;;;;;;;;;35.18;21.14;98284.34;5055696;28;20003;-86
2023/06/15 08:42:56;;;;;;;;;;;;;;;35.18;20.38;98284.34;5055771;28;19921;-86
2023/06/15 08:45:22;;;;;;;;;;;;;;;35.34;21.73;98278.00;5055184;28;19927;-86
2023/06/15 08:47:52;;;;;;;;;;;;;;;35.32;21.63;98277.72;5055714;28;19927;-86
2023/06/15 08:50:18;;;;;;;;;;;;;;;35.38;20.12;98282.19;5055290;28;19991;-86
2023/06/15 08:52:45;;;;;;;;;;;;;;;34.91;23.04;98284.88;5050517;28;20388;-86
2023/06/15 08:55:15;;;;;;;;;;;;;;;35.46;20.74;98273.16;5053662;28;19942;-86
2023/06/15 08:57:42;;;;;;;;;;;;;;;36.04;20.99;98272.56;5055610;28;19921;-87
2023/06/15 09:00:09;;;;;;;;;;;;;;;35.60;21.21;98275.91;5054850;28;19948;-86
2023/06/15 09:02:40;;;;;;;;;;;;;;;35.65;20.98;98272.31;5054887;28;19920;-86
2023/06/15 09:05:07;;;;;;;;;;;;;;;35.85;20.44;98266.44;5054631;28;20019;-87
2023/06/15 09:07:34;;;;;;;;;;;;;;;35.98;20.01;98268.91;5053790;28;19924;-86
2023/06/15 09:10:12;;;;;;;;;;;;;;;36.34;20.50;98272.97;5044752;28;19921;-88
2023/06/15 09:12:57;;;;;;;;;;;;;;;36.51;20.53;98274.59;5044155;28;19998;-89
2023/06/15 09:15:24;;;;;;;;;;;;;;;36.53;20.85;98269.16;5052529;28;19921;-88
2023/06/15 09:17:57;;;;;;;;;;;;;;;36.61;19.96;98269.44;5044475;28;20016;-88
2023/06/15 09:20:27;;;;;;;;;;;;;;;36.17;20.02;98272.09;5034622;28;19991;-89
2023/06/15 09:23:01;;;;;;;;;;;;;;;36.06;19.80;98278.53;5049682;28;20004;-88
2023/06/15 09:25:28;;;;;;;;;;;;;;;35.93;20.11;98278.97;5044083;28;19928;-87
2023/06/15 09:27:59;;;;;;;;;;;;;;;36.29;20.23;98270.84;5034893;28;19925;-88
2023/06/15 09:30:36;;;;;;;;;;;;;;;35.65;21.25;98275.16;5053271;28;19925;-89
2023/06/15 09:33:11;;;;;;;;;;;;;;;35.37;21.57;98263.50;5054478;28;19925;-88
2023/06/15 09:35:37;;;;;;;;;;;;;;;35.49;20.98;98266.44;5054638;28;19921;-88
2023/06/15 09:38:03;;;;;;;;;;;;;;;35.49;21.16;98270.09;5054489;28;19920;-88
2023/06/15 09:40:31;;;;;;;;;;;;;;;35.86;21.07;98270.88;5053733;28;19971;-88
2023/06/15 09:42:58;;;;;;;;;;;;;;;36.03;20.32;98268.16;5037333;28;20388;-87
2023/06/15 09:45:24;;;;;;;;;;;;;;;35.92;20.88;98265.97;5034738;28;20499;-87
2023/06/15 09:47:54;;;;;;;;;;;;;;;35.97;19.72;98265.25;5045723;28;19985;-87
2023/06/15 09:50:25;;;;;;;;;;;;;;;36.27;19.27;98267.75;5052828;28;19927;-88
2023/06/15 09:52:52;;;;;;;;;;;;;;;36.18;21.14;98267.94;5052965;28;19917;-90
2023/06/15 09:55:18;;;;;;;;;;;;;;;36.43;19.97;98256.31;5050204;28;20043;-87
2023/06/15 09:57:44;;;;;;;;;;;;;;;36.46;19.52;98263.13;5033921;28;20381;-89
2023/06/15 10:00:12;;;;;;;;;;;;;;;35.96;20.74;98269.38;5037289;28;19917;-89
2023/06/15 10:02:38;;;;;;;;;;;;;;;35.84;20.64;98264.91;5037241;28;20640;-87
2023/06/15 10:05:12;;;;;;;;;;;;;;;36.08;20.49;98260.88;5049887;28;20406;-87
2023/06/15 10:07:40;;;;;;;;;;;;;;;36.32;19.39;98253.44;5050878;28;19974;-88
2023/06/15 10:10:07;;;;;;;;;;;;;;;36.49;21.01;98245.72;5033534;28;19918;-87
2023/06/15 10:12:35;;;;;;;;;;;;;;;36.91;20.70;98247.66;5033368;28;19913;-87
2023/06/15 10:15:07;;;;;;;;;;;;;;;36.93;19.12;98250.00;5033320;28;20373;-88
2023/06/15 10:17:35;;;;;;;;;;;;;;;36.49;18.90;98247.81;5038558;28;19921;-86
2023/06/15 10:20:08;;;;;;;;;;;;;;;36.45;17.89;98244.41;5050039;28;19986;-86
2023/06/15 10:22:46;;;;;;;;;;;;;;;36.60;19.10;98244.97;5048298;28;19947;-87
2023/06/15 10:25:14;;;;;;;;;;;;;;;36.60;19.26;98242.09;5049389;28;19943;-88
2023/06/15 10:27:40;;;;;;;;;;;;;;;36.70;18.10;98249.16;5048381;28;20007;-88
2023/06/15 10:30:16;;;;;;;;;;;;;;;35.37;19.48;98254.94;5032085;28;20328;-87
2023/06/15 10:32:42;;;;;;;;;;;;;;;35.67;18.90;98255.44;5049494;28;19924;-87
2023/06/15 10:35:12;;;;;;;;;;;;;;;36.51;18.32;98240.28;5034941;28;20288;-87
2023/06/15 10:37:43;;;;;;;;;;;;;;;36.83;18.19;98240.84;5042297;28;20208;-87
2023/06/15 10:40:21;;;;;;;;;;;;;;;36.99;18.10;98240.13;5051079;28;20300;-87
2023/06/15 10:42:47;;;;;;;;;;;;;;;36.90;18.23;98228.88;5052035;28;20008;-87
2023/06/15 10:45:27;;;;;;;;;;;;;;;37.36;18.28;98232.06;5051761;28;19921;-88
2023/06/15 10:47:53;;;;;;;;;;;;;;;37.26;17.15;98232.84;5054004;28;19917;-88
2023/06/15 10:50:19;;;;;;;;;;;;;;;37.27;16.71;98229.44;5051800;28;19920;-88
2023/06/15 10:52:45;;;;;;;;;;;;;;;37.37;17.22;98232.84;5048842;28;20372;-88
2023/06/15 10:55:14;;;;;;;;;;;;;;;36.79;17.56;98223.16;5049445;28;19927;-88
2023/06/15 10:57:40;;;;;;;;;;;;;;;36.68;17.57;98215.34;5053293;28;20471;-87
2023/06/15 11:00:08;;;;;;;;;;;;;;;37.01;18.08;98211.75;5053587;28;19952;-88
2023/06/15 11:02:34;;;;;;;;;;;;;;;37.58;18.05;98213.28;5053797;28;20401;-87
2023/06/15 11:05:03;;;;;;;;;;;;;;;37.46;17.98;98211.75;5052748;28;20015;-87
2023/06/15 11:07:32;;;;;;;;;;;;;;;37.92;17.96;98203.31;5044746;28;20288;-87
2023/06/15 11:10:03;;;;;;;;;;;;;;;38.35;17.31;98204.44;5034905;28;19928;-87
2023/06/15 11:12:32;;;;;;;;;;;;;;;38.75;16.61;98196.38;5052581;28;20007;-88
2023/06/15 11:14:59;;;;;;;;;;;;;;;38.87;17.02;98198.66;5050348;28;19921;-87
2023/06/15 11:17:27;;;;;;;;;;;;;;;38.72;17.68;98200.34;5041452;28;19932;-89
2023/06/15 11:19:53;;;;;;;;;;;;;;;37.02;18.77;98201.84;5038884;28;19928;-87
2023/06/15 11:22:25;;;;;;;;;;;;;;;37.02;18.23;98201.84;5035379;28;19924;-88
2023/06/15 11:24:55;;;;;;;;;;;;;;;36.19;19.10;98200.88;5037051;28;20292;-88
2023/06/15 11:27:22;;;;;;;;;;;;;;;34.51;20.94;98206.63;5033813;28;19921;-87
2023/06/15 11:29:55;;;;;;;;;;;;;;;33.18;22.44;98209.75;5041426;28;20389;-88
2023/06/15 11:32:25;;;;;;;;;;;;;;;32.03;23.46;98207.88;5036568;28;19924;-88
2023/06/15 11:34:55;;;;;;;;;;;;;;;31.77;24.67;98203.94;5038666;28;19921;-89
2023/06/15 11:37:22;;;;;;;;;;;;;;;32.07;23.94;98199.94;5036316;28;19925;-87
2023/06/15 11:39:48;;;;;;;;;;;;;;;33.97;22.30;98199.00;5036405;28;19917;-87
2023/06/15 11:42:15;;;;;;;;;;;;;;;34.78;20.41;98193.94;5039929;28;19927;-88
2023/06/15 11:44:41;;;;;;;;;;;;;;;34.22;20.67;98188.94;5036468;28;19917;-88
2023/06/15 11:47:11;;;;;;;;;;;;;;;34.09;21.09;98197.88;5055405;28;19991;-87
2023/06/15 11:49:37;;;;;;;;;;;;;;;34.24;21.25;98190.00;5056123;28;20403;-87
2023/06/15 11:52:04;;;;;;;;;;;;;;;34.25;21.66;98194.44;5051695;28;20016;-90
2023/06/15 11:54:31;;;;;;;;;;;;;;;34.65;22.02;98185.81;5047555;28;19929;-89
2023/06/15 11:56:57;;;;;;;;;;;;;;;34.64;21.79;98183.44;5050682;28;20376;-90
2023/06/15 11:59:23;;;;;;;;;;;;;;;34.69;20.41;98180.66;5044965;28;19921;-87
2023/06/15 12:01:50;;;;;;;;;;;;;;;34.67;20.88;98174.66;5055072;28;19917;-89
2023/06/15 12:04:16;;;;;;;;;;;;;;;34.86;20.48;98180.81;5053054;28;19920;-87
2023/06/15 12:06:42;;;;;;;;;;;;;;;35.67;20.49;98175.44;5054693;28;19928;-88
2023/06/15 12:09:09;;;;;;;;;;;;;;;35.95;18.07;98170.63;5051599;28;20029;-89
2023/06/15 12:11:35;;;;;;;;;;;;;;;36.05;19.16;98174.06;5052293;28;19925;-88
2023/06/15 12:14:11;;;;;;;;;;;;;;;36.78;19.58;98172.16;5054180;28;19928;-87
2023/06/15 12:16:38;;;;;;;;;;;;;;;37.48;18.37;98166.16;5043979;28;19917;-88
2023/06/15 12:19:07;;;;;;;;;;;;;;;37.99;18.02;98151.16;5047105;28;20323;-88
2023/06/15 12:21:37;;;;;;;;;;;;;;;38.14;18.37;98156.56;5054302;28;19921;-87
2023/06/15 12:24:13;;;;;;;;;;;;;;;38.34;18.17;98154.13;5054323;28;20288;-87
2023/06/15 12:26:40;;;;;;;;;;;;;;;38.44;17.85;98158.22;5054005;28;19921;-87
2023/06/15 12:29:16;;;;;;;;;;;;;;;38.28;17.63;98150.50;5053804;28;20268;-87
2023/06/15 12:31:42;;;;;;;;;;;;;;;38.31;18.09;98151.53;5052215;28;19921;-87
2023/06/15 12:34:08;;;;;;;;;;;;;;;37.58;18.39;98150.22;5040433;28;19929;-87
2023/06/15 12:36:36;;;;;;;;;;;;;;;37.72;16.70;98149.91;5037152;28;19925;-87
2023/06/15 12:39:09;;;;;;;;;;;;;;;36.58;18.41;98148.22;5035243;28;20484;-89
2023/06/15 12:41:41;;;;;;;;;;;;;;;36.86;19.90;98141.72;5041302;28;19972;-89
2023/06/15 12:44:08;;;;;;;;;;;;;;;37.27;18.31;98139.88;5039552;28;19921;-88
2023/06/15 12:46:36;;;;;;;;;;;;;;;36.66;18.21;98134.97;5052783;28;19928;-88
2023/06/15 12:49:03;;;;;;;;;;;;;;;36.02;18.92;98144.44;5053306;28;19963;-88